Lansing, MI (48919)

7:15 AM EDT on July 30, 2016 (GMT -0400)
Shaw Estates | | Change Station

Elev 869 ft 42.73 °N, 84.54 °W | Updated 2 minutes ago

Light Rain
Light Rain
64.4 °F
Feels Like 64.4 °F
N
3.0
Wind Variable Wind from East
Gusts 8.0 mph

Today
High -- | Low -- °F
--% Chance of Precip.
Yesterday
High -- | Low -- °F
Precip. -- in
Pressure 29.99 in
Visibility 8.0 miles
Clouds Overcast 2900 ft
Dew Point 61 °F
Humidity 88%
Rainfall 0.00 in
Snow Depth Not available.
6:28 AM 9:00 PM
Waning Crescent, 14% visible
SPECI KLAN 301101Z VRB03KT 8SM VCTS -RA OVC029 17/16 A2999 RMK AO2 LTG DSNT NE AND SW P0001 T01720156
Pressure 29.99 in
Visibility 8.0 miles
Clouds Overcast 2900 ft
Dew Point 61 °F
Humidity 88%
Rainfall 0.00 in
Snow Depth Not available.
6:28 AM 9:00 PM
Waning Crescent, 14% visible
SPECI KLAN 301101Z VRB03KT 8SM VCTS -RA OVC029 17/16 A2999 RMK AO2 LTG DSNT NE AND SW P0001 T01720156

10-Day Weather Forecast

Almanac

Astronomy

Jul. 30, 2016 Rise Set
Actual Time
Civil Twilight
Nautical Twilight
Astronomical Twilight
Moon
Length of Visible Light
Length of Day
Tomorrow will be .
, % of the Moon is Illuminated

Today's Extremes

State Highs State Lows

Community

WunderPhotos

Upload Photos

1,928,530 photos uploaded!

WunderBlog® & News

Nearby

Air Quality

  Air Quality AQ Index Pollutant
Not available.

Snow Depth

Station Depth Elevation

Earthquake Activity

City Distance Mag. Time & Date
Minimum magnitude displayed is 2.5.

Coastal Water Temperatures

Place Temperature

Stations

Nearby Weather Stations

Station Location Temp. Windchill Dew Point Humidity Wind Precip. Elev Updated Type
                   

Watches & Warnings

There are currently no watches in effect.